Impacts METAR Board
IDs:

KMCO - Orlando Intl, FL, US

Updated at: 1700 UTC 23 Jul 2018
Potential Impact None Slight Moderate High
Time 23/05Z 23/06Z 23/07Z 23/08Z 23/09Z 23/10Z 23/11Z 23/12Z 23/13Z 23/14Z 23/15Z 23/16Z 23/17Z
Temp70 72 72 72 73 74 74 72 73 80 84 86 90
Dewpt69 70 72 72 72 73 73 71 70 70 76 75 73
Altim29.89 29.85 29.85 29.84 29.85 29.83 29.81 29.80 29.81 29.81 29.83 29.84 29.83
VIS10 10 10 10 10 10 10 10 10 10 10 10 10
CIG250 230 250 110 90 250 110 230 250 250 -- 280 100
CoverOVCOVCBKNOVCOVCOVCBKNBKNBKNBKNSCTBKNBKN
FltCatVFRVFRVFRVFRVFRVFRVFRVFRVFRVFRVFRVFRVFR
WX-RA-----------RA------------
WDir130150190190200200200210220210230210250
WSpd7 10 8 8 7 9 13 10 8 6 11 12 17
WGst-- -- -- -- -- -- -- -- -- -- -- 18 --
Raw hourly METARs
KMCO 230453Z 13007KT 10SM -RA FEW030 SCT070 SCT110 OVC250 21/21 A2989 RMK AO2 LTG DSNT SE AND S RAE25B52 TSE26 SLP119 TS MOV E FRQ LTGICCG DSNT E-S CB DSNT E-S MOV E P0001 T02110206 403440211 $
KMCO 230553Z 15010KT 10SM FEW065 SCT110 OVC230 22/21 A2985 RMK AO2 RAE05 SLP105 P0000 60147 T02220211 10239 20211 58031 $
KMCO 230653Z 19008KT 10SM FEW070 FEW110 BKN250 22/22 A2985 RMK AO2 SLP105 T02220222 $
KMCO 230753Z 19008KT 10SM SCT085 BKN110 OVC250 22/22 A2984 RMK AO2 SLP104 T02220222 $
KMCO 230853Z 20007KT 10SM FEW020 BKN090 BKN110 OVC250 23/22 A2985 RMK AO2 SLP107 T02280222 53002 $
KMCO 230953Z 20009KT 10SM FEW020 SCT085 SCT110 OVC250 23/23 A2983 RMK AO2 LTG DSNT SW-NW SLP100 FRQ LTGICCG DSNT S-SW CB DSNT S-SW T02330228 $
KMCO 231053Z 20013KT 10SM -RA FEW012 FEW025 BKN110 BKN250 23/23 A2981 RMK AO2 RAB18 SLP091 CB DSNT SW-W MOV E P0002 T02330228 $
KMCO 231153Z 21010KT 10SM SCT090 BKN230 22/22 A2980 RMK AO2 RAE14 SLP091 P0000 60002 70245 T02220217 10233 20222 56016
KMCO 231253Z 22008KT 10SM FEW090 BKN250 23/21 A2981 RMK AO2 SLP094 T02280211
KMCO 231353Z 21006KT 10SM FEW120 BKN250 27/21 A2981 RMK AO2 SLP094 T02670211
KMCO 231453Z 23011KT 10SM FEW020 FEW140 SCT250 29/24 A2983 RMK AO2 SLP099 T02890244 53008
KMCO 231553Z 21012G18KT 10SM FEW024 SCT110 BKN280 30/24 A2984 RMK AO2 SLP104 T03000239
KMCO 231653Z 25017KT 10SM SCT035 BKN100 BKN250 32/23 A2983 RMK AO2 SLP100 T03220228



Page loaded:  17:14 UTC  |   10:14 AM Pacific  |   11:14 AM Mountain  |   12:14 PM Central  |   01:14 PM Eastern

 

ADVISORIES

FORECASTS

FORECASTS

OBSERVATIONS

USER TOOLS

ABOUT US